Manalapan, Florida
Current Conditions -  °F | °C
As of 11:53 AM on Friday 28 Nov 2014 (Local Time) from KPBI Reporting Station
Scattered Clouds Scattered Clouds  
Wind Chill: 68°   Ceiling: Unl
Heat Index: 68°   Visibility: 10mi
Dew Point: 51°   Wind: 17mph
Humidity: 55%   Direction: 360°N
Pressure: 30.21"   Gusts: NA
Location:  26.5758°N, 80.0835°W
Report Text: KPBI 281653Z 36015KT 10SM SCT038 SCT250 20/11 A3021 RMK AO2 SLP230 T02000106
Loading
Personal Weather Stations






























Interactive Weather Map New forecast layout! Learn more

10-Day Weather Forecast

Advertisements
Track Severe Weather on mobile